createdAt,value
2023-02-21T00:02:26.024Z,98870.81
2023-02-21T00:07:48.079Z,98871.84
2023-02-21T00:13:10.135Z,98859.72
2023-02-21T00:18:30.330Z,98853.69
2023-02-21T00:23:52.869Z,98846.06
2023-02-21T00:29:14.220Z,98839.81
2023-02-21T00:34:34.495Z,98833.50
2023-02-21T00:39:54.721Z,98862.69
2023-02-21T00:45:16.647Z,98860.31
2023-02-21T00:50:36.832Z,98863.91
2023-02-21T00:55:57.499Z,98857.66
2023-02-21T01:01:19.436Z,98873.09
2023-02-21T01:06:40.581Z,98864.84
2023-02-21T01:12:01.300Z,98863.63
2023-02-21T01:17:22.992Z,98863.34
2023-02-21T01:22:43.157Z,98862.28
2023-02-21T01:28:03.260Z,98866.63
2023-02-21T01:33:25.069Z,98867.38
2023-02-21T01:38:45.388Z,98873.34
2023-02-21T01:44:17.732Z,98858.22
2023-02-21T01:49:39.660Z,98859.16
2023-02-21T01:55:03.573Z,98849.22
2023-02-21T02:00:28.492Z,98849.78
2023-02-21T02:05:50.267Z,98849.66
2023-02-21T02:11:23.602Z,98837.38
2023-02-21T02:16:34.388Z,98833.97
2023-02-21T02:22:11.094Z,98838.25
2023-02-21T02:27:41.812Z,98838.13
2023-02-21T02:33:12.822Z,98835.28
2023-02-21T02:38:25.384Z,98841.72
2023-02-21T02:43:34.035Z,98833.78
2023-02-21T02:48:40.786Z,98838.88
2023-02-21T02:53:45.209Z,98827.44
2023-02-21T02:58:52.732Z,98819.50
2023-02-21T03:04:11.430Z,98810.06
2023-02-21T03:09:19.693Z,98810.41
2023-02-21T03:14:27.176Z,98800.69
2023-02-21T03:19:34.179Z,98810.63
2023-02-21T03:24:41.796Z,98801.69
2023-02-21T03:29:44.983Z,98796.47
2023-02-21T03:34:48.352Z,98804.41
2023-02-21T03:39:55.657Z,98804.50
2023-02-21T03:44:58.555Z,98808.09
2023-02-21T03:50:01.555Z,98807.34
2023-02-21T03:55:06.771Z,98804.41
2023-02-21T04:00:11.375Z,98800.06
2023-02-21T04:05:19.849Z,98813.88
2023-02-21T04:10:26.275Z,98808.38
2023-02-21T04:15:30.169Z,98809.13
2023-02-21T04:20:33.421Z,98800.44
2023-02-21T04:25:39.697Z,98805.63
2023-02-21T04:30:49.688Z,98806.59
2023-02-21T04:35:53.059Z,98800.53
2023-02-21T04:41:02.135Z,98804.13
2023-02-21T04:46:06.122Z,98793.34
2023-02-21T04:51:15.907Z,98794.94
2023-02-21T04:56:22.438Z,98797.50
2023-02-21T05:01:30.695Z,98802.78
2023-02-21T05:06:33.583Z,98799.94
2023-02-21T05:11:37.820Z,98799.81
2023-02-21T05:16:40.643Z,98803.34
2023-02-21T05:21:44.659Z,98795.47
2023-02-21T05:26:48.734Z,98794.44
2023-02-21T05:31:51.437Z,98790.38
2023-02-21T05:36:54.229Z,98784.06
2023-02-21T05:41:58.393Z,98790.09
2023-02-21T05:47:02.305Z,98799.94
2023-02-21T05:52:06.357Z,98793.69
2023-02-21T05:57:10.461Z,98792.75
2023-02-21T06:02:13.186Z,98800.97
2023-02-21T06:07:15.954Z,98792.28
2023-02-21T06:12:20.053Z,98794.78
2023-02-21T06:17:22.965Z,98798.22
2023-02-21T06:22:25.988Z,98795.69
2023-02-21T06:27:30.077Z,98797.94
2023-02-21T06:32:33.301Z,98791.31
2023-02-21T06:37:36.189Z,98791.13
2023-02-21T06:42:40.589Z,98795.28
2023-02-21T06:47:43.376Z,98795.06
2023-02-21T06:52:46.117Z,98786.00
2023-02-21T06:57:50.456Z,98789.25
2023-02-21T07:02:53.863Z,98795.75
2023-02-21T07:07:56.728Z,98794.91
2023-02-21T07:13:00.884Z,98795.13
2023-02-21T07:18:04.273Z,98798.31
2023-02-21T07:23:07.193Z,98802.09
2023-02-21T07:28:11.720Z,98811.41
2023-02-21T07:33:15.252Z,98795.38
2023-02-21T07:38:22.144Z,98804.16
2023-02-21T07:43:27.873Z,98803.69
2023-02-21T07:48:32.403Z,98808.81
2023-02-21T07:53:35.522Z,98807.63
2023-02-21T07:58:39.648Z,98809.72
2023-02-21T08:03:42.534Z,98803.13
2023-02-21T08:08:46.349Z,98803.00
2023-02-21T08:13:51.413Z,98804.13
2023-02-21T08:18:54.152Z,98795.69
2023-02-21T08:23:56.989Z,98796.50
2023-02-21T08:29:01.044Z,98792.56
2023-02-21T08:34:04.005Z,98788.41
2023-02-21T08:39:08.293Z,98800.94
2023-02-21T08:44:14.389Z,98794.44
2023-02-21T08:49:17.400Z,98792.31
2023-02-21T08:54:20.380Z,98788.56
2023-02-21T08:59:24.553Z,98788.97
2023-02-21T09:04:28.348Z,98792.59
2023-02-21T09:09:31.105Z,98781.72
2023-02-21T09:14:35.813Z,98786.81
2023-02-21T09:19:38.831Z,98777.13
2023-02-21T09:24:42.976Z,98777.72
2023-02-21T09:29:48.342Z,98782.09
2023-02-21T09:34:52.813Z,98770.47
2023-02-21T09:39:56.233Z,98769.75
2023-02-21T09:45:03.176Z,98770.34
2023-02-21T09:50:14.049Z,98769.38
2023-02-21T09:55:32.606Z,98764.38
2023-02-21T10:00:38.439Z,98759.19
2023-02-21T10:05:46.661Z,98764.16
2023-02-21T10:10:54.959Z,98765.19
2023-02-21T10:16:04.305Z,98764.69
2023-02-21T10:21:16.153Z,98778.25
2023-02-21T10:26:25.672Z,98775.38
2023-02-21T10:31:35.215Z,98772.78
2023-02-21T10:36:38.313Z,98777.00
2023-02-21T10:41:43.329Z,98770.06
2023-02-21T10:46:55.969Z,98774.19
2023-02-21T10:52:18.110Z,98771.28
2023-02-21T10:57:20.880Z,98762.19
2023-02-21T11:02:34.259Z,98753.63
2023-02-21T11:07:39.433Z,98743.03
2023-02-21T11:12:42.250Z,98730.06
2023-02-21T11:17:47.475Z,98726.19
2023-02-21T11:22:51.585Z,98712.28
2023-02-21T11:28:04.069Z,98717.72
2023-02-21T11:33:10.280Z,98704.91
2023-02-21T11:38:35.857Z,98704.41
2023-02-21T11:43:48.092Z,98695.91
2023-02-21T11:49:02.109Z,98696.13
2023-02-21T11:54:06.264Z,98688.81
2023-02-21T11:59:21.564Z,98686.47
2023-02-21T12:04:41.555Z,98673.19
2023-02-21T12:09:51.998Z,98656.47
2023-02-21T12:15:05.052Z,98653.97
2023-02-21T12:20:24.051Z,98639.00
2023-02-21T12:25:34.542Z,98631.06
2023-02-21T12:30:53.557Z,98632.53
2023-02-21T12:36:16.608Z,98619.50
2023-02-21T12:41:39.000Z,98615.22
2023-02-21T12:46:46.596Z,98606.34
2023-02-21T12:51:57.543Z,98604.59
2023-02-21T12:57:06.454Z,98592.09
2023-02-21T13:02:18.440Z,98595.03
2023-02-21T13:07:32.679Z,98584.84
2023-02-21T13:12:42.760Z,98580.31
2023-02-21T13:17:52.699Z,98569.66
2023-02-21T13:23:17.001Z,98560.50
2023-02-21T13:28:23.587Z,98557.91
2023-02-21T13:33:30.512Z,98541.09
2023-02-21T13:38:35.727Z,98538.03
2023-02-21T13:43:46.630Z,98531.41
2023-02-21T13:49:32.543Z,98523.81
2023-02-21T13:54:37.457Z,98529.03
2023-02-21T13:59:40.567Z,98514.41
2023-02-21T14:05:03.799Z,98514.34
2023-02-21T14:10:21.096Z,98507.03
2023-02-21T14:15:24.603Z,98502.59
2023-02-21T14:20:27.821Z,98504.44
2023-02-21T14:25:35.430Z,98500.44
2023-02-21T14:30:38.536Z,98497.97
2023-02-21T14:35:48.832Z,98483.66
2023-02-21T14:41:06.837Z,98490.03
2023-02-21T14:46:32.539Z,98480.47
2023-02-21T14:51:59.371Z,98478.78
2023-02-21T14:57:14.572Z,98470.94
2023-02-21T15:02:24.952Z,98469.41
2023-02-21T15:07:34.782Z,98462.38
2023-02-21T15:12:42.940Z,98459.34
2023-02-21T15:17:55.253Z,98465.16
2023-02-21T15:23:01.364Z,98457.97
2023-02-21T15:28:09.048Z,98455.94
2023-02-21T15:33:17.190Z,98455.78
2023-02-21T15:38:24.989Z,98453.41
2023-02-21T15:43:42.286Z,98453.59
2023-02-21T15:48:45.668Z,98448.53
2023-02-21T15:54:09.899Z,98437.34
2023-02-21T15:59:19.955Z,98443.81
2023-02-21T16:04:26.796Z,98447.63
2023-02-21T16:37:11.904Z,98434.78
2023-02-21T16:43:02.757Z,98431.09
2023-02-21T16:55:11.698Z,98432.94
2023-02-21T17:01:09.986Z,98439.66
2023-02-21T17:06:39.477Z,98435.06
2023-02-21T17:18:39.237Z,98449.69
2023-02-21T17:24:05.401Z,98449.63
2023-02-21T17:30:08.224Z,98454.19
2023-02-21T17:42:37.763Z,98452.75
2023-02-21T17:47:46.113Z,98456.03
2023-02-21T17:52:48.968Z,98463.25
2023-02-21T17:57:51.876Z,98458.22
2023-02-21T18:02:57.573Z,98464.31
2023-02-21T18:08:00.597Z,98466.34
2023-02-21T18:13:03.321Z,98469.41
2023-02-21T18:18:08.399Z,98466.72
2023-02-21T18:23:11.136Z,98465.66
2023-02-21T18:28:13.912Z,98469.09
2023-02-21T18:33:18.664Z,98463.31
2023-02-21T18:38:21.848Z,98467.88
2023-02-21T18:43:27.078Z,98466.22
2023-02-21T18:48:31.305Z,98462.94
2023-02-21T18:53:34.144Z,98461.81
2023-02-21T18:58:37.386Z,98462.41
2023-02-21T19:03:41.699Z,98467.66
2023-02-21T19:08:46.627Z,98469.66
2023-02-21T19:13:50.377Z,98472.16
2023-02-21T19:18:57.158Z,98464.66
2023-02-21T19:24:00.400Z,98470.72
2023-02-21T19:29:03.260Z,98467.16
2023-02-21T19:34:10.160Z,98469.06
2023-02-21T19:39:13.781Z,98462.66
2023-02-21T19:44:18.337Z,98461.97
2023-02-21T19:49:22.784Z,98470.19
2023-02-21T19:54:26.974Z,98472.94
2023-02-21T19:59:30.896Z,98469.78
2023-02-21T20:04:37.198Z,98475.19
2023-02-21T20:09:42.309Z,98475.34
2023-02-21T20:14:49.277Z,98472.16
2023-02-21T20:19:55.287Z,98466.66
2023-02-21T20:24:59.934Z,98463.25
2023-02-21T20:30:07.373Z,98470.78
2023-02-21T20:35:13.934Z,98464.22
2023-02-21T20:40:19.288Z,98464.31
2023-02-21T20:45:25.389Z,98455.31
2023-02-21T20:50:30.551Z,98456.47
2023-02-21T20:55:37.570Z,98449.94
2023-02-21T21:00:41.927Z,98455.00
2023-02-21T21:05:48.192Z,98451.50
2023-02-21T21:10:51.136Z,98456.47
2023-02-21T21:15:54.219Z,98457.72
2023-02-21T21:20:58.779Z,98457.88
2023-02-21T21:26:02.646Z,98459.44
2023-02-21T21:31:05.995Z,98456.03
2023-02-21T21:36:11.337Z,98456.31
2023-02-21T21:41:15.512Z,98457.00
2023-02-21T21:46:19.796Z,98448.31
2023-02-21T21:51:29.035Z,98448.88
2023-02-21T21:56:33.728Z,98447.78
2023-02-21T22:01:36.949Z,98442.09
2023-02-21T22:06:41.439Z,98436.09
2023-02-21T22:11:46.516Z,98429.78
2023-02-21T22:16:50.949Z,98426.97
2023-02-21T22:21:55.650Z,98437.25
2023-02-21T22:26:58.804Z,98429.16
2023-02-21T22:32:01.560Z,98422.56
2023-02-21T22:37:05.711Z,98416.44
2023-02-21T22:42:09.172Z,98416.69
2023-02-21T22:47:12.081Z,98409.28
2023-02-21T22:52:16.252Z,98405.47
2023-02-21T22:57:19.151Z,98400.78
2023-02-21T23:02:22.616Z,98399.47
2023-02-21T23:07:26.847Z,98399.91
2023-02-21T23:12:29.605Z,98399.34
2023-02-21T23:17:34.009Z,98395.47
2023-02-21T23:22:38.031Z,98387.19
2023-02-21T23:27:40.756Z,98385.69
2023-02-21T23:32:44.330Z,98383.41
2023-02-21T23:37:49.313Z,98380.97
2023-02-21T23:42:54.830Z,98372.38
2023-02-21T23:47:57.924Z,98375.94
2023-02-21T23:53:03.331Z,98373.88
2023-02-21T23:58:10.512Z,98368.59
